createdAt,value
2016-11-14T00:00:17.928Z,-4.1
2016-11-14T00:00:38.479Z,-4.1
2016-11-14T00:00:59.033Z,-4.1
2016-11-14T00:01:19.559Z,-4.1
2016-11-14T00:01:40.107Z,-4.1
2016-11-14T00:02:00.641Z,-4.1
2016-11-14T00:02:21.180Z,-4.1
2016-11-14T00:02:41.719Z,-4.2
2016-11-14T00:03:02.267Z,-4.2
2016-11-14T00:03:22.825Z,-4.1
2016-11-14T00:03:43.368Z,-4.1
2016-11-14T00:04:03.910Z,-4.2
2016-11-14T00:04:24.491Z,-4.2
2016-11-14T00:04:45.052Z,-4.2
2016-11-14T00:05:05.597Z,-4.2
2016-11-14T00:05:26.170Z,-4.2
2016-11-14T00:05:46.823Z,-4.3
2016-11-14T00:06:07.348Z,-4.3
2016-11-14T00:06:27.892Z,-4.3
2016-11-14T00:06:48.436Z,-4.3
2016-11-14T00:07:08.983Z,-4.3
2016-11-14T00:07:29.538Z,-4.3
2016-11-14T00:07:50.118Z,-4.3
2016-11-14T00:08:10.681Z,-4.3
2016-11-14T00:08:31.278Z,-4.2
2016-11-14T00:08:51.864Z,-4.3
2016-11-14T00:09:12.447Z,-4.3
2016-11-14T00:09:33.014Z,-4.3
2016-11-14T00:09:53.544Z,-4.3
2016-11-14T00:10:14.143Z,-4.3
2016-11-14T00:10:34.684Z,-4.3
2016-11-14T00:10:55.216Z,-4.2
2016-11-14T00:11:15.769Z,-4.3
2016-11-14T00:11:36.357Z,-4.3
2016-11-14T00:11:56.902Z,-4.3
2016-11-14T00:12:17.481Z,-4.3
2016-11-14T00:12:38.070Z,-4.3
2016-11-14T00:12:58.615Z,-4.3
2016-11-14T00:13:19.167Z,-4.3
2016-11-14T00:13:39.749Z,-4.2
2016-11-14T00:14:00.413Z,-4.3
2016-11-14T00:14:20.934Z,-4.2
2016-11-14T00:14:41.476Z,-4.2
2016-11-14T00:15:02.020Z,-4.2
2016-11-14T00:15:22.563Z,-4.2
2016-11-14T00:15:43.146Z,-4.2
2016-11-14T00:16:03.699Z,-4.2
2016-11-14T00:16:24.258Z,-4.2
2016-11-14T00:16:44.830Z,-4.2
2016-11-14T00:17:05.412Z,-4.1
2016-11-14T00:17:25.963Z,-4.1
2016-11-14T00:20:44.197Z,-4
2016-11-14T00:21:04.740Z,-4.1
2016-11-14T00:21:25.295Z,-4
2016-11-14T00:21:45.855Z,-4
2016-11-14T00:22:06.398Z,-4
2016-11-14T00:22:26.944Z,-4
2016-11-14T00:22:47.510Z,-4.1
2016-11-14T00:23:08.045Z,-4.1
2016-11-14T00:23:28.575Z,-4
2016-11-14T00:23:49.123Z,-4
2016-11-14T00:24:09.668Z,-4
2016-11-14T00:24:30.240Z,-3.9
2016-11-14T00:24:50.792Z,-3.9
2016-11-14T00:25:11.307Z,-4
2016-11-14T00:25:31.841Z,-3.9
2016-11-14T00:25:52.414Z,-3.9
2016-11-14T00:26:12.957Z,-4
2016-11-14T00:26:33.502Z,-3.9
2016-11-14T00:26:54.053Z,-3.9
2016-11-14T00:27:14.620Z,-3.9
2016-11-14T00:27:35.166Z,-3.9
2016-11-14T00:27:55.723Z,-4
2016-11-14T00:28:16.273Z,-3.8
2016-11-14T00:28:36.823Z,-3.9
2016-11-14T00:28:57.387Z,-3.9
2016-11-14T00:29:17.929Z,-3.9
2016-11-14T00:29:38.482Z,-3.9
2016-11-14T00:29:59.024Z,-3.9
2016-11-14T00:30:19.583Z,-3.9
2016-11-14T00:30:40.112Z,-3.9
2016-11-14T00:31:00.654Z,-4
2016-11-14T00:31:21.221Z,-3.9
2016-11-14T00:31:41.802Z,-3.9
2016-11-14T00:32:02.333Z,-3.9
2016-11-14T00:32:22.876Z,-4
2016-11-14T00:32:43.429Z,-3.9
2016-11-14T00:33:03.959Z,-3.9
2016-11-14T00:33:24.506Z,-3.9
2016-11-14T00:33:45.049Z,-3.9
2016-11-14T00:34:05.598Z,-3.9
2016-11-14T00:34:26.139Z,-3.9
2016-11-14T00:34:46.682Z,-3.9
2016-11-14T00:35:07.256Z,-4
2016-11-14T00:35:27.795Z,-4
2016-11-14T00:35:48.349Z,-4
2016-11-14T00:36:08.887Z,-4
2016-11-14T00:36:29.440Z,-4
2016-11-14T00:36:49.984Z,-4.1
2016-11-14T00:37:10.540Z,-4
2016-11-14T00:37:31.117Z,-4
2016-11-14T00:37:51.695Z,-4.1
2016-11-14T00:38:12.249Z,-4.1
2016-11-14T00:38:32.792Z,-4
2016-11-14T00:38:53.351Z,-4.1
2016-11-14T00:39:13.888Z,-4
2016-11-14T00:39:34.430Z,-4.1
2016-11-14T00:39:54.986Z,-4.1
2016-11-14T00:40:15.515Z,-4.1
2016-11-14T18:04:04.447Z,-0.3
2016-11-14T18:04:25.010Z,-0.4
2016-11-14T18:04:45.628Z,-0.4
2016-11-14T18:05:06.171Z,-0.4
2016-11-14T18:05:26.708Z,-0.4
2016-11-14T18:05:47.246Z,-0.4
2016-11-14T18:06:07.818Z,-0.4
2016-11-14T18:06:28.343Z,-0.4
2016-11-14T18:06:49.139Z,-0.4
2016-11-14T18:07:09.675Z,-0.4
2016-11-14T18:07:30.197Z,-0.4
2016-11-14T18:07:50.733Z,-0.4
2016-11-14T18:08:11.283Z,-0.4
2016-11-14T18:08:31.860Z,-0.4
2016-11-14T18:08:52.421Z,-0.4
2016-11-14T18:09:12.980Z,-0.5
2016-11-14T18:09:33.610Z,-0.5
2016-11-14T18:09:54.148Z,-0.5
2016-11-14T18:10:14.688Z,-0.4
2016-11-14T18:10:35.226Z,-0.4
2016-11-14T18:10:55.765Z,-0.5
2016-11-14T18:11:16.297Z,-0.5
2016-11-14T18:11:36.900Z,-0.4
2016-11-14T18:11:57.447Z,-0.5
2016-11-14T18:12:18.006Z,-0.4
2016-11-14T18:12:38.532Z,-0.5
2016-11-14T18:12:59.068Z,-0.5
2016-11-14T18:13:19.612Z,-0.5
2016-11-14T18:13:40.156Z,-0.5
2016-11-14T18:14:00.684Z,-0.5
2016-11-14T18:14:21.225Z,-0.5
2016-11-14T18:14:41.809Z,-0.5
2016-11-14T18:15:02.359Z,-0.5
2016-11-14T18:15:22.893Z,-0.6
2016-11-14T18:15:43.428Z,-0.6
2016-11-14T18:16:04.000Z,-0.6
2016-11-14T18:16:24.540Z,-0.5
2016-11-14T18:16:45.115Z,-0.5
2016-11-14T18:17:05.659Z,-0.5
2016-11-14T18:17:26.202Z,-0.6
2016-11-14T18:18:06.308Z,-0.5
2016-11-14T18:18:31.084Z,-0.5
2016-11-14T18:18:56.256Z,-0.6
2016-11-14T18:19:19.543Z,-0.5
2016-11-14T18:19:40.538Z,-0.6
2016-11-14T18:20:01.081Z,-0.6
2016-11-14T18:20:21.627Z,-0.6
2016-11-14T18:20:42.192Z,-0.6
2016-11-14T18:21:02.752Z,-0.6
2016-11-14T18:21:23.336Z,-0.7
2016-11-14T18:21:43.876Z,-0.6
2016-11-14T18:22:05.800Z,-0.6
2016-11-14T18:22:26.364Z,-0.6
2016-11-14T18:22:46.959Z,-0.6
2016-11-14T18:23:07.562Z,-0.6
2016-11-14T18:23:28.132Z,-0.6
2016-11-14T18:23:48.844Z,-0.6
2016-11-14T18:24:09.388Z,-0.6
2016-11-14T18:24:29.925Z,-0.7
2016-11-14T18:24:50.480Z,-0.6
2016-11-14T18:25:11.032Z,-0.6
2016-11-14T18:25:31.580Z,-0.6
2016-11-14T18:25:52.122Z,-0.7
2016-11-14T18:26:12.692Z,-0.6
2016-11-14T18:26:33.232Z,-0.6
2016-11-14T18:26:53.807Z,-0.6
2016-11-14T18:27:14.356Z,-0.7
2016-11-14T18:27:34.904Z,-0.7
2016-11-14T18:27:55.439Z,-0.7
2016-11-14T18:28:16.023Z,-0.7
2016-11-14T18:28:36.635Z,-0.7
2016-11-14T18:28:57.180Z,-0.6
2016-11-14T18:29:18.049Z,-0.7
2016-11-14T18:29:38.661Z,-0.7
2016-11-14T18:29:59.196Z,-0.7
2016-11-14T18:30:19.879Z,-0.7
2016-11-14T18:30:40.422Z,-0.6
2016-11-14T18:31:00.969Z,-0.7
2016-11-14T18:31:21.563Z,-0.6
2016-11-14T18:31:42.329Z,-0.7
2016-11-14T18:32:02.891Z,-0.7
2016-11-14T18:32:23.416Z,-0.7
2016-11-14T18:32:43.980Z,-0.7
2016-11-14T18:33:04.540Z,-0.6
2016-11-14T18:33:25.085Z,-0.7
2016-11-14T18:33:45.660Z,-0.6
2016-11-14T18:34:06.208Z,-0.6
2016-11-14T18:34:26.746Z,-0.6
2016-11-14T18:34:47.334Z,-0.7
2016-11-14T18:35:07.866Z,-0.7
2016-11-14T18:35:28.406Z,-0.7
2016-11-14T18:35:48.935Z,-0.7
2016-11-14T18:36:09.497Z,-0.7
2016-11-14T18:36:30.053Z,-0.7
2016-11-14T18:36:50.705Z,-0.7
2016-11-14T18:37:11.506Z,-0.6
2016-11-14T18:37:32.037Z,-0.7
2016-11-14T18:37:52.636Z,-0.6
2016-11-14T18:38:13.176Z,-0.7
2016-11-14T18:38:33.716Z,-0.7
2016-11-14T18:38:54.296Z,-0.7
2016-11-14T18:39:14.870Z,-0.7
2016-11-14T18:39:35.403Z,-0.6
2016-11-14T18:39:55.924Z,-0.7
2016-11-14T18:40:16.484Z,-0.7
2016-11-14T18:40:37.029Z,-0.7
2016-11-14T18:40:57.975Z,-0.8
2016-11-14T18:41:18.517Z,-0.6
2016-11-14T18:41:39.054Z,-0.6
2016-11-14T18:41:59.805Z,-0.7
2016-11-14T18:42:20.550Z,-0.7
2016-11-14T18:42:41.090Z,-0.8
2016-11-14T18:43:01.641Z,-0.7
2016-11-14T18:43:22.220Z,-0.7
2016-11-14T18:43:42.763Z,-0.8
2016-11-14T18:44:03.326Z,-0.8
2016-11-14T18:44:23.971Z,-0.7
2016-11-14T18:44:44.496Z,-0.8
2016-11-14T18:45:05.033Z,-0.8
2016-11-14T18:45:25.593Z,-0.8
2016-11-14T18:45:46.151Z,-0.8
2016-11-14T18:46:06.686Z,-0.8
2016-11-14T18:46:27.235Z,-0.8
2016-11-14T18:46:47.808Z,-0.8
2016-11-14T18:47:08.363Z,-0.8
2016-11-14T18:47:28.893Z,-0.8
2016-11-14T18:47:49.428Z,-0.7
2016-11-14T18:48:09.944Z,-0.8
2016-11-14T18:48:30.866Z,-0.8
2016-11-14T18:48:51.427Z,-0.9
2016-11-14T18:49:11.995Z,-0.8
2016-11-14T18:49:32.670Z,-0.8
2016-11-14T18:49:53.226Z,-0.8
2016-11-14T18:50:13.775Z,-0.8
2016-11-14T18:50:34.323Z,-0.9
2016-11-14T18:50:54.859Z,-0.8
2016-11-14T18:51:15.427Z,-0.8
2016-11-14T18:51:35.965Z,-0.9
2016-11-14T18:51:56.504Z,-0.9
2016-11-14T18:52:17.118Z,-0.9
2016-11-14T18:52:37.669Z,-0.9
2016-11-14T18:52:58.238Z,-0.9
2016-11-14T18:53:18.786Z,-0.8
2016-11-14T18:53:39.353Z,-0.9
2016-11-14T18:54:00.020Z,-0.8
2016-11-14T18:54:20.592Z,-0.9
2016-11-14T18:54:41.156Z,-0.9
2016-11-14T18:55:01.721Z,-0.8
2016-11-14T18:55:22.276Z,-0.8
2016-11-14T18:55:42.856Z,-0.9
2016-11-14T18:56:03.898Z,-0.9
2016-11-14T18:56:24.432Z,-0.8
2016-11-14T18:56:44.982Z,-0.8
2016-11-14T18:57:05.542Z,-0.9
2016-11-14T18:57:26.116Z,-0.9
2016-11-14T18:57:46.733Z,-0.8
2016-11-14T18:58:07.286Z,-0.9
2016-11-14T18:58:27.832Z,-0.9
2016-11-14T18:58:48.382Z,-0.9
2016-11-14T18:59:08.922Z,-0.9
2016-11-14T18:59:29.464Z,-0.9
2016-11-14T18:59:50.020Z,-0.9
2016-11-14T19:00:10.566Z,-0.9
2016-11-14T19:00:31.093Z,-0.9
2016-11-14T19:00:51.627Z,-0.9
2016-11-14T19:01:12.155Z,-0.9
2016-11-14T19:01:32.695Z,-0.9
2016-11-14T19:01:53.234Z,-0.9
2016-11-14T19:02:13.780Z,-0.9
2016-11-14T19:02:34.361Z,-0.9
2016-11-14T19:02:54.918Z,-0.9
2016-11-14T19:03:15.654Z,-0.9
2016-11-14T19:03:36.204Z,-0.9
2016-11-14T19:03:56.760Z,-0.9
2016-11-14T19:04:17.274Z,-0.9
2016-11-14T19:04:37.826Z,-0.9
2016-11-14T19:04:58.373Z,-0.9
2016-11-14T19:05:18.925Z,-1
2016-11-14T19:05:39.478Z,-0.9
2016-11-14T19:06:00.020Z,-1
2016-11-14T19:06:20.609Z,-1
2016-11-14T19:06:41.158Z,-0.9
2016-11-14T19:07:01.710Z,-0.9
2016-11-14T19:07:22.247Z,-1
2016-11-14T19:07:42.823Z,-1
2016-11-14T19:08:03.361Z,-1
2016-11-14T19:08:23.940Z,-1
2016-11-14T19:08:44.492Z,-0.9
2016-11-14T19:09:05.040Z,-1
2016-11-14T19:09:25.637Z,-0.9
2016-11-14T19:09:46.185Z,-1
2016-11-14T19:10:06.760Z,-1
2016-11-14T19:10:27.303Z,-1
2016-11-14T19:10:47.896Z,-1
2016-11-14T19:11:08.438Z,-1
2016-11-14T19:11:29.000Z,-0.9
2016-11-14T19:11:49.587Z,-1
2016-11-14T19:12:10.138Z,-0.9
2016-11-14T19:12:30.712Z,-1
2016-11-14T19:12:51.276Z,-1
2016-11-14T19:13:11.814Z,-0.9
2016-11-14T19:13:32.361Z,-0.9
2016-11-14T19:13:52.909Z,-0.9
2016-11-14T19:14:13.438Z,-0.9
2016-11-14T19:14:33.976Z,-0.9
2016-11-14T19:14:54.544Z,-0.9
2016-11-14T19:15:15.100Z,-0.9
2016-11-14T19:15:35.655Z,-0.9
2016-11-14T19:15:56.191Z,-0.9
2016-11-14T19:16:16.755Z,-1
2016-11-14T19:16:37.313Z,-0.9
2016-11-14T19:16:57.837Z,-0.9
2016-11-14T19:17:38.136Z,-0.9
2016-11-14T19:17:58.694Z,-0.9
2016-11-14T19:18:19.229Z,-0.9
2016-11-14T19:18:39.832Z,-0.9
2016-11-14T19:19:00.399Z,-0.9
2016-11-14T19:19:20.938Z,-0.9
2016-11-14T19:19:41.506Z,-0.9
2016-11-14T19:20:02.261Z,-0.9
2016-11-14T19:20:22.798Z,-0.8
2016-11-14T19:20:43.353Z,-0.8
2016-11-14T19:21:03.889Z,-0.9
2016-11-14T19:21:24.462Z,-0.9
2016-11-14T19:21:45.010Z,-0.8
2016-11-14T19:22:05.581Z,-0.8
2016-11-14T19:22:26.135Z,-0.8
2016-11-14T19:22:46.665Z,-0.8
2016-11-14T19:23:07.225Z,-0.8
2016-11-14T19:23:27.752Z,-0.8
2016-11-14T19:23:48.303Z,-0.8
2016-11-14T19:24:08.847Z,-0.8
2016-11-14T19:24:29.372Z,-0.8
2016-11-14T19:24:49.946Z,-0.8
2016-11-14T19:25:10.513Z,-0.8
2016-11-14T19:25:31.076Z,-0.8
2016-11-14T19:25:51.619Z,-0.8
2016-11-14T19:26:12.167Z,-0.8
2016-11-14T19:26:32.707Z,-0.8
2016-11-14T19:26:53.250Z,-0.8
2016-11-14T19:27:13.788Z,-0.8
2016-11-14T19:27:34.913Z,-0.8
2016-11-14T19:27:55.442Z,-0.8
2016-11-14T19:28:15.976Z,-0.8
2016-11-14T19:28:36.533Z,-0.8
2016-11-14T19:28:57.059Z,-0.8
2016-11-14T19:29:17.598Z,-0.8
2016-11-14T19:29:38.143Z,-0.8
2016-11-14T19:29:58.690Z,-0.8
2016-11-14T19:30:19.225Z,-0.8
2016-11-14T19:30:39.761Z,-0.8
2016-11-14T19:31:00.299Z,-0.8
2016-11-14T19:31:20.836Z,-0.8
2016-11-14T19:31:41.377Z,-0.8
2016-11-14T19:32:01.922Z,-0.8
2016-11-14T19:32:22.489Z,-0.9
2016-11-14T19:32:43.024Z,-0.8
2016-11-14T19:33:03.574Z,-0.8
2016-11-14T19:33:24.119Z,-0.8
2016-11-14T19:33:44.692Z,-0.9
2016-11-14T19:34:05.262Z,-0.9
2016-11-14T19:34:25.802Z,-0.9
2016-11-14T19:34:46.339Z,-0.9
2016-11-14T19:35:06.910Z,-0.9
2016-11-14T19:35:27.436Z,-1
2016-11-14T19:35:47.962Z,-1
2016-11-14T19:36:08.500Z,-0.9
2016-11-14T19:36:29.065Z,-0.9
2016-11-14T19:36:49.586Z,-0.9
2016-11-14T19:37:10.113Z,-0.9
2016-11-14T19:37:30.649Z,-0.8
2016-11-14T19:37:51.230Z,-0.9
2016-11-14T19:38:11.775Z,-1
2016-11-14T19:38:32.302Z,-0.9
2016-11-14T19:38:52.836Z,-1
2016-11-14T19:39:13.381Z,-1
2016-11-14T19:39:33.915Z,-1
2016-11-14T19:39:54.465Z,-1
2016-11-14T19:40:14.993Z,-1
2016-11-14T19:40:35.538Z,-0.9
2016-11-14T19:40:56.082Z,-0.9
2016-11-14T19:41:16.628Z,-0.9
2016-11-14T19:41:37.151Z,-0.9
2016-11-14T19:41:57.816Z,-1
2016-11-14T19:42:18.355Z,-1
2016-11-14T19:42:38.891Z,-1
2016-11-14T19:42:59.482Z,-1
2016-11-14T19:43:20.012Z,-1
2016-11-14T19:43:40.533Z,-1
2016-11-14T19:44:01.062Z,-1
2016-11-14T19:44:21.593Z,-0.9
2016-11-14T19:44:42.127Z,-1
2016-11-14T19:45:02.696Z,-0.9
2016-11-14T19:45:23.496Z,-1
2016-11-14T19:45:44.062Z,-1
2016-11-14T19:46:04.596Z,-1
2016-11-14T19:46:25.357Z,-0.9
2016-11-14T19:46:53.841Z,-0.9
2016-11-14T19:47:14.385Z,-0.9
2016-11-14T19:47:35.449Z,-0.9
2016-11-14T19:47:56.021Z,-1
2016-11-14T19:48:16.568Z,-0.9
2016-11-14T19:48:37.097Z,-1
2016-11-14T19:48:57.636Z,-1
2016-11-14T19:49:18.996Z,-1
2016-11-14T19:49:42.995Z,-0.9
2016-11-14T19:50:04.083Z,-1
2016-11-14T19:50:24.766Z,-1
2016-11-14T19:50:45.602Z,-0.9
2016-11-14T19:51:06.204Z,-1
2016-11-14T19:51:26.742Z,-1
2016-11-14T19:51:47.314Z,-1
2016-11-14T19:52:07.856Z,-1
2016-11-14T19:52:28.387Z,-1
2016-11-14T19:52:48.935Z,-1
2016-11-14T19:53:09.465Z,-1
2016-11-14T19:53:30.002Z,-0.9
2016-11-14T19:53:50.538Z,-1
2016-11-14T19:54:11.069Z,-1
2016-11-14T19:54:31.613Z,-1
2016-11-14T19:54:52.197Z,-1
2016-11-14T19:55:12.751Z,-1
2016-11-14T19:55:33.373Z,-1
2016-11-14T19:55:53.924Z,-0.9
2016-11-14T19:56:14.488Z,-1
2016-11-14T19:56:35.030Z,-1
2016-11-14T19:56:55.573Z,-1
2016-11-14T19:57:16.113Z,-1
2016-11-14T19:57:36.644Z,-1
2016-11-14T19:57:57.211Z,-0.9
2016-11-14T19:58:17.760Z,-1
2016-11-14T19:58:38.303Z,-1
2016-11-14T19:58:58.832Z,-1
2016-11-14T19:59:19.386Z,-1
2016-11-14T19:59:39.922Z,-1
2016-11-14T20:00:00.476Z,-1
2016-11-14T20:00:21.020Z,-1
2016-11-14T20:00:41.546Z,-1
2016-11-14T20:01:02.113Z,-1
2016-11-14T20:01:22.659Z,-1
2016-11-14T20:01:43.231Z,-1
2016-11-14T20:02:04.320Z,-1
2016-11-14T20:02:24.894Z,-1
2016-11-14T20:02:45.440Z,-1.1
2016-11-14T20:03:06.002Z,-1.1
2016-11-14T20:03:26.542Z,-1.1
2016-11-14T20:03:47.078Z,-1.1
2016-11-14T20:04:07.615Z,-1.1
2016-11-14T20:04:28.145Z,-1.1
2016-11-14T20:04:48.681Z,-1.1
2016-11-14T20:05:09.221Z,-1.1
2016-11-14T20:05:30.135Z,-1.2
2016-11-14T20:05:50.659Z,-1.2
2016-11-14T20:06:11.196Z,-1.2
2016-11-14T20:06:31.728Z,-1.2
2016-11-14T20:06:52.274Z,-1.2
2016-11-14T20:07:12.801Z,-1.3
2016-11-14T20:07:33.350Z,-1.3
2016-11-14T20:07:53.901Z,-1.3
2016-11-14T20:08:14.448Z,-1.3
2016-11-14T20:08:34.987Z,-1.3
2016-11-14T20:08:55.551Z,-1.4
2016-11-14T20:09:16.096Z,-1.3
2016-11-14T20:09:36.630Z,-1.4
2016-11-14T20:09:57.162Z,-1.4
2016-11-14T20:10:18.233Z,-1.5
2016-11-14T20:10:38.786Z,-1.5
2016-11-14T20:11:00.001Z,-1.6
2016-11-14T20:11:21.005Z,-1.5
2016-11-14T20:11:41.579Z,-1.5
2016-11-14T20:12:02.103Z,-1.5
2016-11-14T20:12:22.633Z,-1.5
2016-11-14T20:12:43.170Z,-1.6
2016-11-14T20:13:03.719Z,-1.6
2016-11-14T20:13:24.289Z,-1.7
2016-11-14T20:13:48.716Z,-1.7
2016-11-14T20:14:09.282Z,-1.7
2016-11-14T20:14:29.850Z,-1.7
2016-11-14T20:14:50.450Z,-1.8
2016-11-14T20:15:10.995Z,-1.7
2016-11-14T20:15:31.593Z,-1.7
2016-11-14T20:15:52.127Z,-1.7
2016-11-14T20:16:14.896Z,-1.8
2016-11-14T20:16:35.444Z,-1.8
2016-11-14T20:16:56.695Z,-1.8
2016-11-14T20:17:17.238Z,-1.8
2016-11-14T20:17:38.273Z,-1.8
2016-11-14T20:17:58.845Z,-1.8
2016-11-14T20:18:19.386Z,-1.7
2016-11-14T20:18:39.921Z,-1.9
2016-11-14T20:19:00.448Z,-1.9
2016-11-14T20:19:21.253Z,-1.8
2016-11-14T20:19:41.997Z,-1.9
2016-11-14T20:20:03.588Z,-1.9
2016-11-14T20:20:24.851Z,-1.9
